createdAt,value
2023-01-05T00:04:05.619Z,11.60
2023-01-05T00:09:29.326Z,10.18
2023-01-05T00:15:10.000Z,11.27
2023-01-05T00:20:52.144Z,10.75
2023-01-05T00:26:20.361Z,10.45
2023-01-05T00:31:44.242Z,8.73
2023-01-05T00:37:14.504Z,8.60
2023-01-05T00:42:37.624Z,8.75
2023-01-05T00:48:00.795Z,8.68
2023-01-05T00:53:25.220Z,6.55
2023-01-05T00:58:48.923Z,4.97
2023-01-05T01:04:12.322Z,5.20
2023-01-05T01:09:37.632Z,5.72
2023-01-05T01:15:01.256Z,4.47
2023-01-05T01:20:30.242Z,5.15
2023-01-05T01:26:00.943Z,5.82
2023-01-05T01:31:25.251Z,5.47
2023-01-05T01:36:48.624Z,5.80
2023-01-05T01:42:18.363Z,5.18
2023-01-05T01:47:47.053Z,4.05
2023-01-05T01:53:16.471Z,3.88
2023-01-05T01:58:40.579Z,4.88
2023-01-05T02:04:11.671Z,4.65
2023-01-05T02:09:42.342Z,5.43
2023-01-05T02:15:23.654Z,5.50
2023-01-05T02:21:17.232Z,5.90
2023-01-05T02:27:26.705Z,6.07
2023-01-05T02:32:58.238Z,6.68
2023-01-05T02:38:32.078Z,5.63
2023-01-05T02:44:01.314Z,6.53
2023-01-05T02:49:34.056Z,5.82
2023-01-05T02:55:00.706Z,6.05
2023-01-05T03:00:34.578Z,7.75
2023-01-05T03:06:07.107Z,6.63
2023-01-05T03:12:02.138Z,5.00
2023-01-05T03:17:32.165Z,4.85
2023-01-05T03:23:24.245Z,4.93
2023-01-05T03:29:14.099Z,4.65
2023-01-05T03:35:05.754Z,4.35
2023-01-05T03:40:35.881Z,5.75
2023-01-05T03:46:12.272Z,4.18
2023-01-05T03:51:41.658Z,4.78
2023-01-05T03:57:14.172Z,4.78
2023-01-05T04:02:45.354Z,5.13
2023-01-05T04:08:14.201Z,4.80
2023-01-05T04:13:40.675Z,4.10
2023-01-05T04:19:08.346Z,4.78
2023-01-05T04:24:39.006Z,4.40
2023-01-05T04:30:11.197Z,4.30
2023-01-05T04:35:40.392Z,4.05
2023-01-05T04:41:08.577Z,4.13
2023-01-05T04:46:39.462Z,3.25
2023-01-05T04:52:10.825Z,3.40
2023-01-05T04:57:40.047Z,4.03
2023-01-05T05:03:09.250Z,3.53
2023-01-05T05:08:33.324Z,3.67
2023-01-05T05:13:58.413Z,3.03
2023-01-05T05:19:22.939Z,3.63
2023-01-05T05:24:46.794Z,3.30
2023-01-05T05:30:16.292Z,3.47
2023-01-05T05:35:41.241Z,2.97
2023-01-05T05:41:04.724Z,3.38
2023-01-05T05:46:29.367Z,3.00
2023-01-05T05:51:55.230Z,3.25
2023-01-05T05:57:19.277Z,3.80
2023-01-05T06:02:42.999Z,4.18
2023-01-05T06:08:07.990Z,3.28
2023-01-05T06:13:31.448Z,3.25
2023-01-05T06:18:54.582Z,3.67
2023-01-05T06:24:20.038Z,3.95
2023-01-05T06:29:43.733Z,3.50
2023-01-05T06:35:08.421Z,5.82
2023-01-05T06:40:33.613Z,3.85
2023-01-05T06:45:57.029Z,4.53
2023-01-05T06:51:20.578Z,4.90
2023-01-05T06:56:45.716Z,4.57
2023-01-05T07:02:15.211Z,4.90
2023-01-05T07:07:39.505Z,5.05
2023-01-05T07:13:04.136Z,4.60
2023-01-05T07:18:27.703Z,4.40
2023-01-05T07:23:51.745Z,4.00
2023-01-05T07:29:16.714Z,4.53
2023-01-05T07:34:54.823Z,6.70
2023-01-05T07:40:25.031Z,5.47
2023-01-05T07:45:59.785Z,4.75
2023-01-05T07:51:29.245Z,6.10
2023-01-05T07:56:57.893Z,5.53
2023-01-05T08:02:35.479Z,6.00
2023-01-05T08:08:05.342Z,6.43
2023-01-05T08:14:06.524Z,4.47
2023-01-05T08:19:36.296Z,5.57
2023-01-05T08:25:05.621Z,5.28
2023-01-05T08:30:33.950Z,5.93
2023-01-05T08:36:09.358Z,5.77
2023-01-05T08:41:40.079Z,6.13
2023-01-05T08:47:09.460Z,5.97
2023-01-05T08:52:39.811Z,5.50
2023-01-05T08:58:08.978Z,5.60
2023-01-05T09:03:38.724Z,4.97
2023-01-05T09:14:39.195Z,4.88
2023-01-05T09:20:08.966Z,6.00
2023-01-05T09:25:41.078Z,5.70
2023-01-05T09:31:11.825Z,5.43
2023-01-05T09:36:41.330Z,5.35
2023-01-05T09:42:15.332Z,6.33
2023-01-05T09:47:46.844Z,6.57
2023-01-05T09:53:17.893Z,7.07
2023-01-05T09:58:49.030Z,8.85
2023-01-05T10:04:25.235Z,7.10
2023-01-05T10:10:01.694Z,8.10
2023-01-05T10:15:37.505Z,9.90
2023-01-05T10:21:16.841Z,9.07
2023-01-05T10:33:14.858Z,8.88
2023-01-05T10:38:52.807Z,9.52
2023-01-05T10:44:43.771Z,10.88
2023-01-05T10:50:31.842Z,9.48
2023-01-05T10:56:04.910Z,11.15
2023-01-05T11:01:34.900Z,9.20
2023-01-05T14:47:42.041Z,11.50
2023-01-05T14:53:14.167Z,12.75
2023-01-05T14:59:08.206Z,10.73
2023-01-05T15:04:40.521Z,11.57
2023-01-05T15:10:38.738Z,12.43
2023-01-05T15:16:16.190Z,10.90
2023-01-05T15:22:13.456Z,12.82
2023-01-05T15:28:04.961Z,11.68
2023-01-05T15:33:36.876Z,10.90
2023-01-05T15:39:24.208Z,12.68
2023-01-05T15:44:56.440Z,12.93
2023-01-05T15:50:30.651Z,13.57
2023-01-05T15:55:58.861Z,12.77
2023-01-05T16:01:30.076Z,11.38
2023-01-05T16:06:59.956Z,11.60
2023-01-05T16:12:26.868Z,13.30
2023-01-05T16:17:55.489Z,13.52
2023-01-05T16:23:25.850Z,14.20
2023-01-05T16:28:50.431Z,14.67
2023-01-05T16:34:24.253Z,13.10
2023-01-05T16:40:02.959Z,14.80
2023-01-05T16:45:35.307Z,15.00
2023-01-05T16:51:06.394Z,15.35
2023-01-05T16:56:50.205Z,18.80
2023-01-05T17:02:47.980Z,18.98
2023-01-05T17:08:21.299Z,18.33
2023-01-05T17:13:52.398Z,17.20
2023-01-05T17:19:22.554Z,18.65
2023-01-05T17:24:53.448Z,16.75
2023-01-05T17:30:23.245Z,17.08
2023-01-05T17:35:53.977Z,17.73
2023-01-05T17:41:23.676Z,18.13
2023-01-05T17:46:53.330Z,18.20
2023-01-05T17:52:23.291Z,18.30
2023-01-05T17:57:52.007Z,16.17
2023-01-05T18:03:22.927Z,17.67
2023-01-05T18:08:53.311Z,18.70
2023-01-05T18:14:22.369Z,17.35
2023-01-05T18:19:51.389Z,18.02
2023-01-05T18:25:21.690Z,16.52
2023-01-05T18:30:51.355Z,19.52
2023-01-05T18:36:20.371Z,16.10
2023-01-05T18:41:50.631Z,19.20
2023-01-05T18:47:20.598Z,17.33
2023-01-05T18:52:50.180Z,21.05
2023-01-05T18:58:20.371Z,16.93
2023-01-05T19:03:50.637Z,18.80
2023-01-05T19:09:20.228Z,16.83
2023-01-05T19:14:50.776Z,17.02
2023-01-05T19:20:20.397Z,15.70
2023-01-05T19:25:49.278Z,16.08
2023-01-05T19:31:20.204Z,16.13
2023-01-05T19:36:49.158Z,15.15
2023-01-05T19:42:18.123Z,15.75
2023-01-05T19:47:48.426Z,13.60
2023-01-05T19:53:17.151Z,14.73
2023-01-05T19:58:46.200Z,15.37
2023-01-05T20:04:16.860Z,15.00
2023-01-05T20:09:46.651Z,16.33
2023-01-05T20:15:13.226Z,14.80
2023-01-05T20:20:41.317Z,15.52
2023-01-05T20:26:10.361Z,12.93
2023-01-05T20:31:37.472Z,13.30
2023-01-05T20:37:04.535Z,15.48
2023-01-05T20:42:30.750Z,14.60
2023-01-05T20:47:55.243Z,12.50
2023-01-05T20:53:22.288Z,11.48
2023-01-05T20:58:48.375Z,14.85
2023-01-05T21:04:13.059Z,12.07
2023-01-05T21:09:41.467Z,13.10
2023-01-05T21:15:06.777Z,13.02
2023-01-05T21:20:30.998Z,11.52
2023-01-05T21:26:06.177Z,13.63
2023-01-05T21:31:32.540Z,14.63
2023-01-05T21:36:56.496Z,14.48
2023-01-05T21:42:42.443Z,13.02
2023-01-05T21:48:07.223Z,13.25
2023-01-05T21:53:57.247Z,12.15
2023-01-05T21:59:25.339Z,10.90
2023-01-05T22:04:50.110Z,10.75
2023-01-05T22:10:15.549Z,10.27
2023-01-05T22:15:42.102Z,9.75
2023-01-05T22:21:08.628Z,11.93
2023-01-05T22:26:32.628Z,8.18
2023-01-05T22:32:01.761Z,9.05
2023-01-05T22:42:50.907Z,7.07
2023-01-05T22:48:16.465Z,9.13
2023-01-05T22:53:42.404Z,8.55
2023-01-05T22:59:06.915Z,7.03
2023-01-05T23:04:35.876Z,8.25
2023-01-05T23:10:00.306Z,7.82
2023-01-05T23:15:27.517Z,7.50
2023-01-05T23:20:55.870Z,7.25
2023-01-05T23:26:19.836Z,6.85
2023-01-05T23:31:44.505Z,7.78
2023-01-05T23:37:09.843Z,8.20
2023-01-05T23:42:47.269Z,8.43
2023-01-05T23:48:12.493Z,7.50
2023-01-05T23:53:38.132Z,7.72
2023-01-05T23:59:07.089Z,7.25
